TimeCST,TemperatureF,Dew PointF,Humidity,Sea Level PressureIn,VisibilityMPH,Wind Direction,Wind SpeedMPH,Gust SpeedMPH,PrecipitationIn,Events,Conditions,WindDirDegrees,DateUTC
12:56 AM,61.0,57.0,87,30.14,10.0,Calm,Calm,-,N/A,,Clear,0,2012-11-20 06:56:00
1:56 AM,59.0,57.0,93,30.15,10.0,Calm,Calm,-,N/A,,Clear,0,2012-11-20 07:56:00
2:56 AM,57.0,55.9,96,30.14,10.0,NNW,4.6,-,N/A,,Clear,330,2012-11-20 08:56:00
3:56 AM,57.9,57.0,97,30.15,10.0,NW,3.5,-,N/A,,Clear,320,2012-11-20 09:56:00
4:56 AM,57.9,55.9,93,30.15,9.0,North,-9999.0,-,N/A,,Clear,0,2012-11-20 10:56:00
5:56 AM,57.0,55.0,93,30.15,8.0,Calm,Calm,-,N/A,,Clear,0,2012-11-20 11:56:00
6:32 AM,57.2,55.4,94,30.17,8.0,North,3.5,-,N/A,,Mostly Cloudy,360,2012-11-20 12:32:00
6:56 AM,55.9,54.0,93,30.17,8.0,NNW,3.5,-,N/A,,Mostly Cloudy,340,2012-11-20 12:56:00
7:56 AM,62.6,57.2,82,30.19,7.0,Calm,Calm,-,N/A,,Mostly Cloudy,0,2012-11-20 13:56:00
8:56 AM,68.0,61.0,78,30.21,10.0,Calm,Calm,-,N/A,,Mostly Cloudy,0,2012-11-20 14:56:00
9:56 AM,73.9,61.0,64,30.21,10.0,Variable,3.5,-,N/A,,Mostly Cloudy,0,2012-11-20 15:56:00
10:56 AM,77.0,55.9,48,30.20,10.0,SSW,4.6,-,N/A,,Mostly Cloudy,200,2012-11-20 16:56:00
11:56 AM,79.0,57.9,48,30.18,10.0,WNW,4.6,-,N/A,,Mostly Cloudy,290,2012-11-20 17:56:00
12:56 PM,80.1,57.0,45,30.15,10.0,SE,3.5,-,N/A,,Mostly Cloudy,130,2012-11-20 18:56:00
1:56 PM,80.1,57.0,45,30.12,10.0,SE,5.8,-,N/A,,Mostly Cloudy,140,2012-11-20 19:56:00
2:56 PM,79.0,57.9,48,30.12,10.0,Calm,Calm,-,N/A,,Mostly Cloudy,0,2012-11-20 20:56:00
3:56 PM,80.1,57.9,47,30.11,10.0,ENE,3.5,-,N/A,,Mostly Cloudy,60,2012-11-20 21:56:00
4:56 PM,77.0,60.1,56,30.12,10.0,ESE,11.5,-,N/A,,Mostly Cloudy,110,2012-11-20 22:56:00
5:56 PM,72.0,59.0,64,30.13,10.0,ESE,6.9,-,N/A,,Mostly Cloudy,120,2012-11-20 23:56:00
6:56 PM,69.1,59.0,70,30.16,10.0,ESE,5.8,-,N/A,,Mostly Cloudy,110,2012-11-21 00:56:00
7:56 PM,66.0,60.1,81,30.17,10.0,ESE,5.8,-,N/A,,Mostly Cloudy,120,2012-11-21 01:56:00
8:56 PM,64.9,60.1,84,30.19,10.0,ESE,4.6,-,N/A,,Mostly Cloudy,120,2012-11-21 02:56:00
9:56 PM,64.0,61.0,90,30.19,10.0,SE,5.8,-,N/A,,Mostly Cloudy,130,2012-11-21 03:56:00
10:56 PM,63.0,61.0,93,30.18,10.0,SSE,4.6,-,N/A,,Mostly Cloudy,150,2012-11-21 04:56:00
11:56 PM,64.0,61.0,90,30.17,10.0,Calm,Calm,-,N/A,,Clear,0,2012-11-21 05:56:00